sensor_id;sensor_type;location;lat;lon;timestamp;temperature;humidity
9776;DHT22;4927;52.472;13.108;2023-01-08T00:00:30;7.70;99.90
9776;DHT22;4927;52.472;13.108;2023-01-08T00:05:36;7.80;99.90
9776;DHT22;4927;52.472;13.108;2023-01-08T00:10:42;7.80;99.90
9776;DHT22;4927;52.472;13.108;2023-01-08T00:15:49;7.90;99.90
9776;DHT22;4927;52.472;13.108;2023-01-08T00:20:55;7.70;99.90
9776;DHT22;4927;52.472;13.108;2023-01-08T00:26:03;7.60;99.90
9776;DHT22;4927;52.472;13.108;2023-01-08T00:31:10;7.50;99.90
9776;DHT22;4927;52.472;13.108;2023-01-08T00:36:16;7.60;99.90
9776;DHT22;4927;52.472;13.108;2023-01-08T00:41:22;7.50;99.90
9776;DHT22;4927;52.472;13.108;2023-01-08T00:46:29;7.40;99.90
9776;DHT22;4927;52.472;13.108;2023-01-08T00:51:35;7.40;99.90
9776;DHT22;4927;52.472;13.108;2023-01-08T00:56:41;7.40;99.90
9776;DHT22;4927;52.472;13.108;2023-01-08T01:01:47;7.30;99.90
9776;DHT22;4927;52.472;13.108;2023-01-08T01:06:52;7.20;99.90
9776;DHT22;4927;52.472;13.108;2023-01-08T01:11:58;7.20;99.90
9776;DHT22;4927;52.472;13.108;2023-01-08T01:17:05;7.20;99.90
9776;DHT22;4927;52.472;13.108;2023-01-08T01:22:09;7.20;99.90
9776;DHT22;4927;52.472;13.108;2023-01-08T01:27:15;7.10;99.90
9776;DHT22;4927;52.472;13.108;2023-01-08T01:32:22;7.10;99.90
9776;DHT22;4927;52.472;13.108;2023-01-08T01:37:28;7.00;99.90
9776;DHT22;4927;52.472;13.108;2023-01-08T01:42:34;7.00;99.90
9776;DHT22;4927;52.472;13.108;2023-01-08T01:47:45;6.90;99.90
9776;DHT22;4927;52.472;13.108;2023-01-08T01:52:53;6.90;99.90
9776;DHT22;4927;52.472;13.108;2023-01-08T01:58:02;6.80;99.90
9776;DHT22;4927;52.472;13.108;2023-01-08T02:03:06;6.70;99.90
9776;DHT22;4927;52.472;13.108;2023-01-08T02:08:14;6.60;99.90
9776;DHT22;4927;52.472;13.108;2023-01-08T02:13:20;6.50;99.90
9776;DHT22;4927;52.472;13.108;2023-01-08T02:18:31;6.50;99.90
9776;DHT22;4927;52.472;13.108;2023-01-08T02:23:59;6.50;99.90
9776;DHT22;4927;52.472;13.108;2023-01-08T02:29:07;6.40;99.90
9776;DHT22;4927;52.472;13.108;2023-01-08T02:34:13;6.30;99.90
9776;DHT22;4927;52.472;13.108;2023-01-08T02:44:38;6.30;99.90
9776;DHT22;4927;52.472;13.108;2023-01-08T02:49:41;6.30;99.90
9776;DHT22;4927;52.472;13.108;2023-01-08T02:54:47;6.20;99.90
9776;DHT22;4927;52.472;13.108;2023-01-08T02:59:53;6.10;99.90
9776;DHT22;4927;52.472;13.108;2023-01-08T03:05:02;6.10;99.90
9776;DHT22;4927;52.472;13.108;2023-01-08T03:10:07;6.00;99.90
9776;DHT22;4927;52.472;13.108;2023-01-08T03:15:15;5.90;99.90
9776;DHT22;4927;52.472;13.108;2023-01-08T03:20:19;6.00;99.90
9776;DHT22;4927;52.472;13.108;2023-01-08T03:25:25;6.00;99.90
9776;DHT22;4927;52.472;13.108;2023-01-08T03:30:31;5.90;99.90
9776;DHT22;4927;52.472;13.108;2023-01-08T03:35:39;5.90;99.90
9776;DHT22;4927;52.472;13.108;2023-01-08T03:40:45;5.80;99.90
9776;DHT22;4927;52.472;13.108;2023-01-08T03:45:50;5.80;99.90
9776;DHT22;4927;52.472;13.108;2023-01-08T03:50:56;5.70;99.90
9776;DHT22;4927;52.472;13.108;2023-01-08T03:56:02;5.70;99.90
9776;DHT22;4927;52.472;13.108;2023-01-08T04:01:06;5.70;99.90
9776;DHT22;4927;52.472;13.108;2023-01-08T04:06:11;5.70;99.90
9776;DHT22;4927;52.472;13.108;2023-01-08T04:11:17;5.60;99.90
9776;DHT22;4927;52.472;13.108;2023-01-08T04:16:23;5.60;99.90
9776;DHT22;4927;52.472;13.108;2023-01-08T04:21:30;5.60;99.90
9776;DHT22;4927;52.472;13.108;2023-01-08T04:26:36;5.60;99.90
9776;DHT22;4927;52.472;13.108;2023-01-08T04:31:43;5.60;99.90
9776;DHT22;4927;52.472;13.108;2023-01-08T04:36:49;5.60;99.90
9776;DHT22;4927;52.472;13.108;2023-01-08T04:41:56;5.50;99.90
9776;DHT22;4927;52.472;13.108;2023-01-08T04:47:02;5.50;99.90
9776;DHT22;4927;52.472;13.108;2023-01-08T04:52:08;5.60;99.90
9776;DHT22;4927;52.472;13.108;2023-01-08T04:57:15;5.70;99.90
9776;DHT22;4927;52.472;13.108;2023-01-08T05:02:22;5.80;99.90
9776;DHT22;4927;52.472;13.108;2023-01-08T05:07:28;5.80;99.90
9776;DHT22;4927;52.472;13.108;2023-01-08T05:12:35;5.90;99.90
9776;DHT22;4927;52.472;13.108;2023-01-08T05:17:41;6.00;99.90
9776;DHT22;4927;52.472;13.108;2023-01-08T05:22:47;6.10;99.90
9776;DHT22;4927;52.472;13.108;2023-01-08T05:27:53;6.20;99.90
9776;DHT22;4927;52.472;13.108;2023-01-08T05:33:00;6.30;99.90
9776;DHT22;4927;52.472;13.108;2023-01-08T05:38:07;6.30;99.90
9776;DHT22;4927;52.472;13.108;2023-01-08T05:43:13;6.40;99.90
9776;DHT22;4927;52.472;13.108;2023-01-08T05:48:24;6.50;99.90
9776;DHT22;4927;52.472;13.108;2023-01-08T05:53:30;6.50;99.90
9776;DHT22;4927;52.472;13.108;2023-01-08T05:58:36;6.50;99.90
9776;DHT22;4927;52.472;13.108;2023-01-08T06:03:46;6.50;99.90
9776;DHT22;4927;52.472;13.108;2023-01-08T06:08:53;6.60;99.90
9776;DHT22;4927;52.472;13.108;2023-01-08T06:14:03;6.60;99.90
9776;DHT22;4927;52.472;13.108;2023-01-08T06:19:14;6.70;99.90
9776;DHT22;4927;52.472;13.108;2023-01-08T06:24:25;6.70;99.90
9776;DHT22;4927;52.472;13.108;2023-01-08T06:29:31;6.70;99.90
9776;DHT22;4927;52.472;13.108;2023-01-08T06:34:37;6.70;99.90
9776;DHT22;4927;52.472;13.108;2023-01-08T06:39:43;6.70;99.90
9776;DHT22;4927;52.472;13.108;2023-01-08T06:44:54;6.80;99.90
9776;DHT22;4927;52.472;13.108;2023-01-08T06:50:01;6.80;99.90
9776;DHT22;4927;52.472;13.108;2023-01-08T06:55:08;6.90;99.90
9776;DHT22;4927;52.472;13.108;2023-01-08T07:00:15;6.90;99.90
9776;DHT22;4927;52.472;13.108;2023-01-08T07:05:22;6.90;99.90
9776;DHT22;4927;52.472;13.108;2023-01-08T07:10:28;6.80;99.90
9776;DHT22;4927;52.472;13.108;2023-01-08T07:15:34;6.80;99.90
9776;DHT22;4927;52.472;13.108;2023-01-08T07:20:40;6.80;99.90
9776;DHT22;4927;52.472;13.108;2023-01-08T07:25:50;6.80;99.90
9776;DHT22;4927;52.472;13.108;2023-01-08T07:30:57;6.80;99.90
9776;DHT22;4927;52.472;13.108;2023-01-08T07:36:37;6.70;99.90
9776;DHT22;4927;52.472;13.108;2023-01-08T07:54:15;6.60;99.90
9776;DHT22;4927;52.472;13.108;2023-01-08T07:59:27;6.70;99.90
9776;DHT22;4927;52.472;13.108;2023-01-08T08:04:33;6.60;99.90
9776;DHT22;4927;52.472;13.108;2023-01-08T08:09:40;6.60;99.90
9776;DHT22;4927;52.472;13.108;2023-01-08T08:14:46;6.60;99.90
9776;DHT22;4927;52.472;13.108;2023-01-08T08:19:53;6.60;99.90
9776;DHT22;4927;52.472;13.108;2023-01-08T08:26:12;6.60;99.90
9776;DHT22;4927;52.472;13.108;2023-01-08T08:31:24;6.60;99.90
9776;DHT22;4927;52.472;13.108;2023-01-08T08:36:31;6.70;99.90
9776;DHT22;4927;52.472;13.108;2023-01-08T08:41:41;6.70;99.90
9776;DHT22;4927;52.472;13.108;2023-01-08T09:02:54;6.70;99.90
9776;DHT22;4927;52.472;13.108;2023-01-08T09:08:05;6.70;99.90
9776;DHT22;4927;52.472;13.108;2023-01-08T09:13:11;6.70;99.90
9776;DHT22;4927;52.472;13.108;2023-01-08T09:18:18;6.80;99.90
9776;DHT22;4927;52.472;13.108;2023-01-08T09:23:24;6.80;99.90
9776;DHT22;4927;52.472;13.108;2023-01-08T09:28:30;6.80;99.90
9776;DHT22;4927;52.472;13.108;2023-01-08T09:33:36;6.80;99.90
9776;DHT22;4927;52.472;13.108;2023-01-08T09:38:46;6.80;99.90
9776;DHT22;4927;52.472;13.108;2023-01-08T09:43:53;6.80;99.90
9776;DHT22;4927;52.472;13.108;2023-01-08T09:49:02;6.90;99.90
9776;DHT22;4927;52.472;13.108;2023-01-08T09:54:14;6.90;99.90
9776;DHT22;4927;52.472;13.108;2023-01-08T09:59:18;6.90;99.90
9776;DHT22;4927;52.472;13.108;2023-01-08T10:04:25;7.00;99.90
9776;DHT22;4927;52.472;13.108;2023-01-08T10:09:31;7.00;99.90
9776;DHT22;4927;52.472;13.108;2023-01-08T10:14:42;7.10;99.90
9776;DHT22;4927;52.472;13.108;2023-01-08T10:19:48;7.00;99.90
9776;DHT22;4927;52.472;13.108;2023-01-08T10:25:02;7.10;99.90
9776;DHT22;4927;52.472;13.108;2023-01-08T10:30:04;7.10;99.90
9776;DHT22;4927;52.472;13.108;2023-01-08T10:35:13;7.20;99.90
9776;DHT22;4927;52.472;13.108;2023-01-08T10:45:27;7.40;99.90
9776;DHT22;4927;52.472;13.108;2023-01-08T10:50:33;7.40;99.90
9776;DHT22;4927;52.472;13.108;2023-01-08T10:55:39;7.40;99.90
9776;DHT22;4927;52.472;13.108;2023-01-08T11:00:47;7.40;99.90
9776;DHT22;4927;52.472;13.108;2023-01-08T11:05:57;7.50;99.90
9776;DHT22;4927;52.472;13.108;2023-01-08T11:11:04;7.70;99.90
9776;DHT22;4927;52.472;13.108;2023-01-08T11:16:15;7.80;99.90
9776;DHT22;4927;52.472;13.108;2023-01-08T11:21:23;7.80;99.90
9776;DHT22;4927;52.472;13.108;2023-01-08T11:26:28;7.80;99.90
9776;DHT22;4927;52.472;13.108;2023-01-08T11:31:46;7.90;99.90
9776;DHT22;4927;52.472;13.108;2023-01-08T11:36:50;7.90;99.90
9776;DHT22;4927;52.472;13.108;2023-01-08T11:42:00;7.90;99.90
9776;DHT22;4927;52.472;13.108;2023-01-08T11:47:11;8.10;99.90
9776;DHT22;4927;52.472;13.108;2023-01-08T11:52:22;8.00;99.90
9776;DHT22;4927;52.472;13.108;2023-01-08T11:57:50;8.00;99.90
9776;DHT22;4927;52.472;13.108;2023-01-08T12:02:58;8.00;99.90
9776;DHT22;4927;52.472;13.108;2023-01-08T12:08:08;8.10;99.90
9776;DHT22;4927;52.472;13.108;2023-01-08T12:19:00;8.20;99.90
9776;DHT22;4927;52.472;13.108;2023-01-08T12:24:10;8.10;99.90
9776;DHT22;4927;52.472;13.108;2023-01-08T12:29:31;8.10;99.90
9776;DHT22;4927;52.472;13.108;2023-01-08T12:40:02;8.00;99.90
9776;DHT22;4927;52.472;13.108;2023-01-08T12:45:11;7.90;99.90
9776;DHT22;4927;52.472;13.108;2023-01-08T12:50:35;8.00;99.90
9776;DHT22;4927;52.472;13.108;2023-01-08T12:55:43;8.00;99.90
9776;DHT22;4927;52.472;13.108;2023-01-08T13:00:59;8.00;99.90
9776;DHT22;4927;52.472;13.108;2023-01-08T13:06:06;8.00;99.90
9776;DHT22;4927;52.472;13.108;2023-01-08T13:11:11;7.90;99.90
9776;DHT22;4927;52.472;13.108;2023-01-08T13:16:18;7.90;99.90
9776;DHT22;4927;52.472;13.108;2023-01-08T13:21:40;8.00;99.90
9776;DHT22;4927;52.472;13.108;2023-01-08T13:26:47;7.90;99.90
9776;DHT22;4927;52.472;13.108;2023-01-08T13:31:54;7.90;99.90
9776;DHT22;4927;52.472;13.108;2023-01-08T13:37:00;7.80;99.90
9776;DHT22;4927;52.472;13.108;2023-01-08T13:42:21;7.90;99.90
9776;DHT22;4927;52.472;13.108;2023-01-08T13:47:30;7.80;99.90
9776;DHT22;4927;52.472;13.108;2023-01-08T13:52:43;7.80;99.90
9776;DHT22;4927;52.472;13.108;2023-01-08T13:57:51;7.80;99.90
9776;DHT22;4927;52.472;13.108;2023-01-08T14:02:56;7.70;99.90
9776;DHT22;4927;52.472;13.108;2023-01-08T14:08:02;7.70;99.90
9776;DHT22;4927;52.472;13.108;2023-01-08T14:13:11;7.60;99.90
9776;DHT22;4927;52.472;13.108;2023-01-08T14:18:15;7.60;99.90
9776;DHT22;4927;52.472;13.108;2023-01-08T14:23:25;7.60;99.90
9776;DHT22;4927;52.472;13.108;2023-01-08T14:28:30;7.60;99.90
9776;DHT22;4927;52.472;13.108;2023-01-08T14:33:36;7.60;99.90
9776;DHT22;4927;52.472;13.108;2023-01-08T14:38:42;7.50;99.90
9776;DHT22;4927;52.472;13.108;2023-01-08T14:43:48;7.50;99.90
9776;DHT22;4927;52.472;13.108;2023-01-08T14:48:55;7.50;99.90
9776;DHT22;4927;52.472;13.108;2023-01-08T14:54:02;7.50;99.90
9776;DHT22;4927;52.472;13.108;2023-01-08T14:59:08;7.50;99.90
9776;DHT22;4927;52.472;13.108;2023-01-08T15:04:16;7.50;99.90
9776;DHT22;4927;52.472;13.108;2023-01-08T15:09:29;7.60;99.90
9776;DHT22;4927;52.472;13.108;2023-01-08T15:14:28;7.40;99.90
9776;DHT22;4927;52.472;13.108;2023-01-08T15:19:38;7.50;99.90
9776;DHT22;4927;52.472;13.108;2023-01-08T15:24:53;7.40;99.90
9776;DHT22;4927;52.472;13.108;2023-01-08T15:29:56;7.40;99.90
9776;DHT22;4927;52.472;13.108;2023-01-08T15:35:01;7.40;99.90
9776;DHT22;4927;52.472;13.108;2023-01-08T15:40:11;7.30;99.90
9776;DHT22;4927;52.472;13.108;2023-01-08T15:45:21;7.30;99.90
9776;DHT22;4927;52.472;13.108;2023-01-08T15:50:26;7.30;99.90
9776;DHT22;4927;52.472;13.108;2023-01-08T15:55:31;7.30;99.90
9776;DHT22;4927;52.472;13.108;2023-01-08T16:00:37;7.30;99.90
9776;DHT22;4927;52.472;13.108;2023-01-08T16:05:43;7.30;99.90
9776;DHT22;4927;52.472;13.108;2023-01-08T16:10:51;7.30;99.90
9776;DHT22;4927;52.472;13.108;2023-01-08T16:15:57;7.30;99.90
9776;DHT22;4927;52.472;13.108;2023-01-08T16:21:01;7.40;99.90
9776;DHT22;4927;52.472;13.108;2023-01-08T16:26:10;7.40;99.90
9776;DHT22;4927;52.472;13.108;2023-01-08T16:31:15;7.30;99.90
9776;DHT22;4927;52.472;13.108;2023-01-08T16:36:21;7.40;99.90
9776;DHT22;4927;52.472;13.108;2023-01-08T16:41:28;7.30;99.90
9776;DHT22;4927;52.472;13.108;2023-01-08T16:46:35;7.30;99.90
9776;DHT22;4927;52.472;13.108;2023-01-08T16:51:42;7.30;99.90
9776;DHT22;4927;52.472;13.108;2023-01-08T16:56:48;7.30;99.90
9776;DHT22;4927;52.472;13.108;2023-01-08T17:01:52;7.30;99.90
9776;DHT22;4927;52.472;13.108;2023-01-08T17:06:58;7.20;99.90
9776;DHT22;4927;52.472;13.108;2023-01-08T17:12:05;7.20;99.90
9776;DHT22;4927;52.472;13.108;2023-01-08T17:17:11;7.20;99.90
9776;DHT22;4927;52.472;13.108;2023-01-08T17:22:18;7.10;99.90
9776;DHT22;4927;52.472;13.108;2023-01-08T17:27:24;7.00;99.90
9776;DHT22;4927;52.472;13.108;2023-01-08T17:32:31;7.00;99.90
9776;DHT22;4927;52.472;13.108;2023-01-08T17:37:37;6.90;99.90
9776;DHT22;4927;52.472;13.108;2023-01-08T17:42:43;6.90;99.90
9776;DHT22;4927;52.472;13.108;2023-01-08T17:47:51;6.80;99.90
9776;DHT22;4927;52.472;13.108;2023-01-08T17:52:57;6.80;99.90
9776;DHT22;4927;52.472;13.108;2023-01-08T17:58:01;6.80;99.90
9776;DHT22;4927;52.472;13.108;2023-01-08T18:03:08;6.90;99.90
9776;DHT22;4927;52.472;13.108;2023-01-08T18:08:15;6.90;99.90
9776;DHT22;4927;52.472;13.108;2023-01-08T18:13:21;6.90;99.90
9776;DHT22;4927;52.472;13.108;2023-01-08T18:18:27;6.90;99.90
9776;DHT22;4927;52.472;13.108;2023-01-08T18:23:31;6.80;99.90
9776;DHT22;4927;52.472;13.108;2023-01-08T18:35:04;6.70;99.90
9776;DHT22;4927;52.472;13.108;2023-01-08T18:40:12;6.70;99.90
9776;DHT22;4927;52.472;13.108;2023-01-08T18:45:16;6.70;99.90
9776;DHT22;4927;52.472;13.108;2023-01-08T18:50:21;6.70;99.90
9776;DHT22;4927;52.472;13.108;2023-01-08T18:55:31;6.70;99.90
9776;DHT22;4927;52.472;13.108;2023-01-08T19:00:37;6.70;99.90
9776;DHT22;4927;52.472;13.108;2023-01-08T19:05:44;6.70;99.90
9776;DHT22;4927;52.472;13.108;2023-01-08T19:10:50;6.70;99.90
9776;DHT22;4927;52.472;13.108;2023-01-08T19:15:56;6.70;99.90
9776;DHT22;4927;52.472;13.108;2023-01-08T19:21:04;6.70;99.90
9776;DHT22;4927;52.472;13.108;2023-01-08T19:26:08;6.60;99.90
9776;DHT22;4927;52.472;13.108;2023-01-08T19:31:15;6.60;99.90
9776;DHT22;4927;52.472;13.108;2023-01-08T19:36:20;6.60;99.90
9776;DHT22;4927;52.472;13.108;2023-01-08T19:41:26;6.60;99.90
9776;DHT22;4927;52.472;13.108;2023-01-08T19:46:40;6.70;99.90
9776;DHT22;4927;52.472;13.108;2023-01-08T19:51:46;6.70;99.90
9776;DHT22;4927;52.472;13.108;2023-01-08T19:56:51;6.80;99.90
9776;DHT22;4927;52.472;13.108;2023-01-08T20:01:55;6.80;99.90
9776;DHT22;4927;52.472;13.108;2023-01-08T20:07:01;6.80;99.90
9776;DHT22;4927;52.472;13.108;2023-01-08T20:12:08;6.80;99.90
9776;DHT22;4927;52.472;13.108;2023-01-08T20:17:14;6.80;99.90
9776;DHT22;4927;52.472;13.108;2023-01-08T20:22:20;6.80;99.90
9776;DHT22;4927;52.472;13.108;2023-01-08T20:27:26;6.70;99.90
9776;DHT22;4927;52.472;13.108;2023-01-08T20:32:37;6.80;99.90
9776;DHT22;4927;52.472;13.108;2023-01-08T20:37:44;6.80;99.90
9776;DHT22;4927;52.472;13.108;2023-01-08T20:42:50;6.90;99.90
9776;DHT22;4927;52.472;13.108;2023-01-08T20:47:56;6.90;99.90
9776;DHT22;4927;52.472;13.108;2023-01-08T20:53:02;6.90;99.90
9776;DHT22;4927;52.472;13.108;2023-01-08T20:58:09;7.00;99.90
9776;DHT22;4927;52.472;13.108;2023-01-08T21:03:15;6.90;99.90
9776;DHT22;4927;52.472;13.108;2023-01-08T21:08:21;6.90;99.90
9776;DHT22;4927;52.472;13.108;2023-01-08T21:13:27;6.90;99.90
9776;DHT22;4927;52.472;13.108;2023-01-08T21:18:34;6.90;99.90
9776;DHT22;4927;52.472;13.108;2023-01-08T21:23:40;6.80;99.90
9776;DHT22;4927;52.472;13.108;2023-01-08T21:28:47;6.80;99.90
9776;DHT22;4927;52.472;13.108;2023-01-08T21:33:55;6.80;99.90
9776;DHT22;4927;52.472;13.108;2023-01-08T21:39:00;6.80;99.90
9776;DHT22;4927;52.472;13.108;2023-01-08T21:44:10;6.70;99.90
9776;DHT22;4927;52.472;13.108;2023-01-08T21:49:19;6.70;99.90
9776;DHT22;4927;52.472;13.108;2023-01-08T21:54:26;6.70;99.90
9776;DHT22;4927;52.472;13.108;2023-01-08T21:59:30;6.70;99.90
9776;DHT22;4927;52.472;13.108;2023-01-08T22:04:34;6.70;99.90
9776;DHT22;4927;52.472;13.108;2023-01-08T22:09:41;6.70;99.90
9776;DHT22;4927;52.472;13.108;2023-01-08T22:14:47;6.60;99.90
9776;DHT22;4927;52.472;13.108;2023-01-08T22:19:53;6.60;99.90
9776;DHT22;4927;52.472;13.108;2023-01-08T22:25:00;6.60;99.90
9776;DHT22;4927;52.472;13.108;2023-01-08T22:30:08;6.40;99.90
9776;DHT22;4927;52.472;13.108;2023-01-08T22:35:13;6.40;99.90
9776;DHT22;4927;52.472;13.108;2023-01-08T22:40:19;6.30;99.90
9776;DHT22;4927;52.472;13.108;2023-01-08T22:45:25;6.30;99.90
9776;DHT22;4927;52.472;13.108;2023-01-08T22:50:32;6.20;99.90
9776;DHT22;4927;52.472;13.108;2023-01-08T22:55:39;6.20;99.90
9776;DHT22;4927;52.472;13.108;2023-01-08T23:00:45;6.20;99.90
9776;DHT22;4927;52.472;13.108;2023-01-08T23:11:04;6.10;99.90
9776;DHT22;4927;52.472;13.108;2023-01-08T23:16:11;6.00;99.90
9776;DHT22;4927;52.472;13.108;2023-01-08T23:21:18;6.00;99.90
9776;DHT22;4927;52.472;13.108;2023-01-08T23:26:24;5.90;99.90
9776;DHT22;4927;52.472;13.108;2023-01-08T23:31:29;5.90;99.90
9776;DHT22;4927;52.472;13.108;2023-01-08T23:36:36;5.80;99.90
9776;DHT22;4927;52.472;13.108;2023-01-08T23:41:43;5.80;99.90
9776;DHT22;4927;52.472;13.108;2023-01-08T23:46:49;5.70;99.90
9776;DHT22;4927;52.472;13.108;2023-01-08T23:51:55;5.70;99.90
9776;DHT22;4927;52.472;13.108;2023-01-08T23:56:59;5.70;99.90
